sensor_id;sensor_type;location;lat;lon;timestamp;temperature;humidity
16980;DHT22;42288;52.182;21.156;2023-08-31T00:01:52;18.10;99.90
16980;DHT22;42288;52.182;21.156;2023-08-31T00:04:18;18.10;99.90
16980;DHT22;42288;52.182;21.156;2023-08-31T00:06:44;18.20;99.90
16980;DHT22;42288;52.182;21.156;2023-08-31T00:09:12;18.10;99.90
16980;DHT22;42288;52.182;21.156;2023-08-31T00:11:37;18.00;99.90
16980;DHT22;42288;52.182;21.156;2023-08-31T00:14:04;18.00;99.90
16980;DHT22;42288;52.182;21.156;2023-08-31T00:16:29;18.10;99.90
16980;DHT22;42288;52.182;21.156;2023-08-31T00:18:58;18.10;99.90
16980;DHT22;42288;52.182;21.156;2023-08-31T00:21:24;18.10;99.90
16980;DHT22;42288;52.182;21.156;2023-08-31T00:23:50;18.00;99.90
16980;DHT22;42288;52.182;21.156;2023-08-31T00:26:16;18.00;99.90
16980;DHT22;42288;52.182;21.156;2023-08-31T00:28:41;18.00;99.90
16980;DHT22;42288;52.182;21.156;2023-08-31T00:31:11;18.00;99.90
16980;DHT22;42288;52.182;21.156;2023-08-31T00:33:39;17.90;99.90
16980;DHT22;42288;52.182;21.156;2023-08-31T00:36:05;18.00;99.90
16980;DHT22;42288;52.182;21.156;2023-08-31T00:38:31;17.90;99.90
16980;DHT22;42288;52.182;21.156;2023-08-31T00:40:57;18.00;99.90
16980;DHT22;42288;52.182;21.156;2023-08-31T00:43:22;18.00;99.90
16980;DHT22;42288;52.182;21.156;2023-08-31T00:45:50;17.90;99.90
16980;DHT22;42288;52.182;21.156;2023-08-31T00:48:17;17.90;99.90
16980;DHT22;42288;52.182;21.156;2023-08-31T00:50:46;17.90;99.90
16980;DHT22;42288;52.182;21.156;2023-08-31T00:53:12;17.90;99.90
16980;DHT22;42288;52.182;21.156;2023-08-31T00:55:38;17.90;99.90
16980;DHT22;42288;52.182;21.156;2023-08-31T00:58:07;17.90;99.90
16980;DHT22;42288;52.182;21.156;2023-08-31T01:11:57;17.70;99.90
16980;DHT22;42288;52.182;21.156;2023-08-31T01:14:42;17.60;99.90
16980;DHT22;42288;52.182;21.156;2023-08-31T01:17:08;17.60;99.90
16980;DHT22;42288;52.182;21.156;2023-08-31T01:19:50;17.60;99.90
16980;DHT22;42288;52.182;21.156;2023-08-31T01:24:56;17.60;99.90
16980;DHT22;42288;52.182;21.156;2023-08-31T01:27:23;17.70;99.90
16980;DHT22;42288;52.182;21.156;2023-08-31T01:29:49;17.60;99.90
16980;DHT22;42288;52.182;21.156;2023-08-31T01:32:14;17.60;99.90
16980;DHT22;42288;52.182;21.156;2023-08-31T01:34:40;17.60;99.90
16980;DHT22;42288;52.182;21.156;2023-08-31T01:37:12;17.60;99.90
16980;DHT22;42288;52.182;21.156;2023-08-31T01:39:56;17.60;99.90
16980;DHT22;42288;52.182;21.156;2023-08-31T01:42:22;17.60;99.90
16980;DHT22;42288;52.182;21.156;2023-08-31T01:44:48;17.60;99.90
16980;DHT22;42288;52.182;21.156;2023-08-31T01:47:15;17.60;99.90
16980;DHT22;42288;52.182;21.156;2023-08-31T01:49:42;17.60;99.90
16980;DHT22;42288;52.182;21.156;2023-08-31T01:52:09;17.60;99.90
16980;DHT22;42288;52.182;21.156;2023-08-31T01:54:35;17.50;99.90
16980;DHT22;42288;52.182;21.156;2023-08-31T01:57:02;17.50;99.90
16980;DHT22;42288;52.182;21.156;2023-08-31T01:59:28;17.50;99.90
16980;DHT22;42288;52.182;21.156;2023-08-31T02:01:54;17.40;99.90
16980;DHT22;42288;52.182;21.156;2023-08-31T02:04:19;17.40;99.90
16980;DHT22;42288;52.182;21.156;2023-08-31T02:06:45;17.50;99.90
16980;DHT22;42288;52.182;21.156;2023-08-31T02:09:10;17.40;99.90
16980;DHT22;42288;52.182;21.156;2023-08-31T02:11:36;17.30;99.90
16980;DHT22;42288;52.182;21.156;2023-08-31T02:14:04;17.40;99.90
16980;DHT22;42288;52.182;21.156;2023-08-31T02:16:30;17.30;99.90
16980;DHT22;42288;52.182;21.156;2023-08-31T02:18:55;17.30;99.90
16980;DHT22;42288;52.182;21.156;2023-08-31T02:21:21;17.30;99.90
16980;DHT22;42288;52.182;21.156;2023-08-31T02:23:48;17.30;99.90
16980;DHT22;42288;52.182;21.156;2023-08-31T02:26:13;17.20;99.90
16980;DHT22;42288;52.182;21.156;2023-08-31T02:28:39;17.20;99.90
16980;DHT22;42288;52.182;21.156;2023-08-31T02:31:04;17.30;99.90
16980;DHT22;42288;52.182;21.156;2023-08-31T02:33:30;17.30;99.90
16980;DHT22;42288;52.182;21.156;2023-08-31T02:35:55;17.20;99.90
16980;DHT22;42288;52.182;21.156;2023-08-31T02:38:21;17.20;99.90
16980;DHT22;42288;52.182;21.156;2023-08-31T02:40:47;17.20;99.90
16980;DHT22;42288;52.182;21.156;2023-08-31T02:43:13;17.20;99.90
16980;DHT22;42288;52.182;21.156;2023-08-31T02:45:39;17.20;99.90
16980;DHT22;42288;52.182;21.156;2023-08-31T02:48:06;17.20;99.90
16980;DHT22;42288;52.182;21.156;2023-08-31T02:50:34;17.20;99.90
16980;DHT22;42288;52.182;21.156;2023-08-31T02:52:59;17.30;99.90
16980;DHT22;42288;52.182;21.156;2023-08-31T02:55:25;17.20;99.90
16980;DHT22;42288;52.182;21.156;2023-08-31T02:57:50;17.20;99.90
16980;DHT22;42288;52.182;21.156;2023-08-31T03:00:16;17.20;99.90
16980;DHT22;42288;52.182;21.156;2023-08-31T03:02:42;17.20;99.90
16980;DHT22;42288;52.182;21.156;2023-08-31T03:05:09;17.20;99.90
16980;DHT22;42288;52.182;21.156;2023-08-31T03:07:34;17.30;99.90
16980;DHT22;42288;52.182;21.156;2023-08-31T03:10:00;17.30;99.90
16980;DHT22;42288;52.182;21.156;2023-08-31T03:12:26;17.30;99.90
16980;DHT22;42288;52.182;21.156;2023-08-31T03:14:51;17.40;99.90
16980;DHT22;42288;52.182;21.156;2023-08-31T03:17:17;17.40;99.90
16980;DHT22;42288;52.182;21.156;2023-08-31T03:19:42;17.40;99.90
16980;DHT22;42288;52.182;21.156;2023-08-31T03:22:08;17.40;99.90
16980;DHT22;42288;52.182;21.156;2023-08-31T03:24:33;17.30;99.90
16980;DHT22;42288;52.182;21.156;2023-08-31T03:26:59;17.30;99.90
16980;DHT22;42288;52.182;21.156;2023-08-31T03:29:24;17.30;99.90
16980;DHT22;42288;52.182;21.156;2023-08-31T03:31:50;17.30;99.90
16980;DHT22;42288;52.182;21.156;2023-08-31T03:34:15;17.30;99.90
16980;DHT22;42288;52.182;21.156;2023-08-31T03:36:41;17.30;99.90
16980;DHT22;42288;52.182;21.156;2023-08-31T03:39:06;17.20;99.90
16980;DHT22;42288;52.182;21.156;2023-08-31T03:41:32;17.20;99.90
16980;DHT22;42288;52.182;21.156;2023-08-31T03:43:58;17.20;99.90
16980;DHT22;42288;52.182;21.156;2023-08-31T03:46:23;17.20;99.90
16980;DHT22;42288;52.182;21.156;2023-08-31T03:48:49;17.20;99.90
16980;DHT22;42288;52.182;21.156;2023-08-31T03:51:15;17.10;99.90
16980;DHT22;42288;52.182;21.156;2023-08-31T03:53:40;17.20;99.90
16980;DHT22;42288;52.182;21.156;2023-08-31T03:56:06;17.20;99.90
16980;DHT22;42288;52.182;21.156;2023-08-31T03:58:31;17.20;99.90
16980;DHT22;42288;52.182;21.156;2023-08-31T04:00:57;17.10;99.90
16980;DHT22;42288;52.182;21.156;2023-08-31T04:03:23;17.10;99.90
16980;DHT22;42288;52.182;21.156;2023-08-31T04:05:54;17.20;99.90
16980;DHT22;42288;52.182;21.156;2023-08-31T04:08:19;17.10;99.90
16980;DHT22;42288;52.182;21.156;2023-08-31T04:10:45;17.20;99.90
16980;DHT22;42288;52.182;21.156;2023-08-31T04:13:10;17.20;99.90
16980;DHT22;42288;52.182;21.156;2023-08-31T04:15:36;17.20;99.90
16980;DHT22;42288;52.182;21.156;2023-08-31T04:18:01;17.20;99.90
16980;DHT22;42288;52.182;21.156;2023-08-31T04:20:27;17.10;99.90
16980;DHT22;42288;52.182;21.156;2023-08-31T04:22:53;17.20;99.90
16980;DHT22;42288;52.182;21.156;2023-08-31T04:25:19;17.20;99.90
16980;DHT22;42288;52.182;21.156;2023-08-31T04:27:44;17.20;99.90
16980;DHT22;42288;52.182;21.156;2023-08-31T04:30:11;17.20;99.90
16980;DHT22;42288;52.182;21.156;2023-08-31T04:32:37;17.20;99.90
16980;DHT22;42288;52.182;21.156;2023-08-31T04:35:03;17.30;99.90
16980;DHT22;42288;52.182;21.156;2023-08-31T04:37:31;17.20;99.90
16980;DHT22;42288;52.182;21.156;2023-08-31T04:39:57;17.20;99.90
16980;DHT22;42288;52.182;21.156;2023-08-31T04:42:23;17.30;99.90
16980;DHT22;42288;52.182;21.156;2023-08-31T04:44:49;17.30;99.90
16980;DHT22;42288;52.182;21.156;2023-08-31T04:47:15;17.30;99.90
16980;DHT22;42288;52.182;21.156;2023-08-31T04:49:41;17.20;99.90
16980;DHT22;42288;52.182;21.156;2023-08-31T04:52:06;17.10;99.90
16980;DHT22;42288;52.182;21.156;2023-08-31T04:54:32;17.20;99.90
16980;DHT22;42288;52.182;21.156;2023-08-31T04:56:57;17.20;99.90
16980;DHT22;42288;52.182;21.156;2023-08-31T04:59:23;17.30;99.90
16980;DHT22;42288;52.182;21.156;2023-08-31T05:01:48;17.20;99.90
16980;DHT22;42288;52.182;21.156;2023-08-31T05:04:14;17.30;99.90
16980;DHT22;42288;52.182;21.156;2023-08-31T05:06:39;17.30;99.90
16980;DHT22;42288;52.182;21.156;2023-08-31T05:09:05;17.30;99.90
16980;DHT22;42288;52.182;21.156;2023-08-31T05:11:31;17.30;99.90
16980;DHT22;42288;52.182;21.156;2023-08-31T05:13:57;17.40;99.90
16980;DHT22;42288;52.182;21.156;2023-08-31T05:16:22;17.30;99.90
16980;DHT22;42288;52.182;21.156;2023-08-31T05:18:49;17.40;99.90
16980;DHT22;42288;52.182;21.156;2023-08-31T05:21:15;17.50;99.90
16980;DHT22;42288;52.182;21.156;2023-08-31T05:23:40;17.50;99.90
16980;DHT22;42288;52.182;21.156;2023-08-31T05:26:06;17.60;99.90
16980;DHT22;42288;52.182;21.156;2023-08-31T05:28:31;17.60;99.90
16980;DHT22;42288;52.182;21.156;2023-08-31T05:30:59;17.70;99.90
16980;DHT22;42288;52.182;21.156;2023-08-31T05:33:24;17.70;99.90
16980;DHT22;42288;52.182;21.156;2023-08-31T05:35:55;17.80;99.90
16980;DHT22;42288;52.182;21.156;2023-08-31T05:38:20;17.80;99.90
16980;DHT22;42288;52.182;21.156;2023-08-31T05:40:46;17.90;99.90
16980;DHT22;42288;52.182;21.156;2023-08-31T05:43:13;17.80;99.90
16980;DHT22;42288;52.182;21.156;2023-08-31T05:45:38;17.80;99.90
16980;DHT22;42288;52.182;21.156;2023-08-31T05:48:04;17.80;99.90
16980;DHT22;42288;52.182;21.156;2023-08-31T05:50:30;17.80;99.90
16980;DHT22;42288;52.182;21.156;2023-08-31T05:52:56;17.90;99.90
16980;DHT22;42288;52.182;21.156;2023-08-31T05:55:21;17.90;99.90
16980;DHT22;42288;52.182;21.156;2023-08-31T05:57:47;17.90;99.90
16980;DHT22;42288;52.182;21.156;2023-08-31T06:00:13;17.80;99.90
16980;DHT22;42288;52.182;21.156;2023-08-31T06:02:39;17.80;99.90
16980;DHT22;42288;52.182;21.156;2023-08-31T06:05:05;17.80;99.90
16980;DHT22;42288;52.182;21.156;2023-08-31T06:07:31;17.70;99.90
16980;DHT22;42288;52.182;21.156;2023-08-31T06:09:56;17.70;99.90
16980;DHT22;42288;52.182;21.156;2023-08-31T06:12:22;17.80;99.90
16980;DHT22;42288;52.182;21.156;2023-08-31T06:14:48;17.70;99.90
16980;DHT22;42288;52.182;21.156;2023-08-31T06:17:13;17.70;99.90
16980;DHT22;42288;52.182;21.156;2023-08-31T06:19:40;17.70;99.90
16980;DHT22;42288;52.182;21.156;2023-08-31T06:22:06;17.70;99.90
16980;DHT22;42288;52.182;21.156;2023-08-31T06:24:32;17.70;99.90
16980;DHT22;42288;52.182;21.156;2023-08-31T06:26:58;17.80;99.90
16980;DHT22;42288;52.182;21.156;2023-08-31T06:29:23;17.90;99.90
16980;DHT22;42288;52.182;21.156;2023-08-31T06:31:49;17.90;99.90
16980;DHT22;42288;52.182;21.156;2023-08-31T06:34:15;18.00;99.90
16980;DHT22;42288;52.182;21.156;2023-08-31T06:36:40;18.00;99.90
16980;DHT22;42288;52.182;21.156;2023-08-31T06:39:06;18.00;99.90
16980;DHT22;42288;52.182;21.156;2023-08-31T06:41:32;18.30;99.90
16980;DHT22;42288;52.182;21.156;2023-08-31T06:43:57;18.20;99.90
16980;DHT22;42288;52.182;21.156;2023-08-31T06:46:23;18.30;99.90
16980;DHT22;42288;52.182;21.156;2023-08-31T06:48:48;18.40;99.90
16980;DHT22;42288;52.182;21.156;2023-08-31T06:51:15;18.50;99.90
16980;DHT22;42288;52.182;21.156;2023-08-31T06:53:43;18.40;99.90
16980;DHT22;42288;52.182;21.156;2023-08-31T06:56:09;18.30;99.90
16980;DHT22;42288;52.182;21.156;2023-08-31T06:58:34;18.30;99.90
16980;DHT22;42288;52.182;21.156;2023-08-31T07:01:00;18.40;99.90
16980;DHT22;42288;52.182;21.156;2023-08-31T07:03:26;18.50;99.90
16980;DHT22;42288;52.182;21.156;2023-08-31T07:05:52;18.40;99.90
16980;DHT22;42288;52.182;21.156;2023-08-31T07:08:17;18.40;99.90
16980;DHT22;42288;52.182;21.156;2023-08-31T07:10:43;18.40;99.90
16980;DHT22;42288;52.182;21.156;2023-08-31T07:13:08;18.50;99.90
16980;DHT22;42288;52.182;21.156;2023-08-31T07:15:34;18.70;99.90
16980;DHT22;42288;52.182;21.156;2023-08-31T07:17:59;18.80;99.90
16980;DHT22;42288;52.182;21.156;2023-08-31T07:20:25;18.90;99.90
16980;DHT22;42288;52.182;21.156;2023-08-31T07:22:51;18.90;99.90
16980;DHT22;42288;52.182;21.156;2023-08-31T07:25:16;19.00;99.90
16980;DHT22;42288;52.182;21.156;2023-08-31T07:27:42;19.00;99.90
16980;DHT22;42288;52.182;21.156;2023-08-31T07:30:08;19.10;99.90
16980;DHT22;42288;52.182;21.156;2023-08-31T07:32:35;19.10;99.90
16980;DHT22;42288;52.182;21.156;2023-08-31T07:35:00;19.20;99.90
16980;DHT22;42288;52.182;21.156;2023-08-31T07:37:26;19.30;99.90
16980;DHT22;42288;52.182;21.156;2023-08-31T07:39:52;19.20;99.90
16980;DHT22;42288;52.182;21.156;2023-08-31T07:42:17;19.20;99.90
16980;DHT22;42288;52.182;21.156;2023-08-31T07:44:43;19.20;99.90
16980;DHT22;42288;52.182;21.156;2023-08-31T07:47:09;19.20;99.90
16980;DHT22;42288;52.182;21.156;2023-08-31T07:49:35;19.30;99.90
16980;DHT22;42288;52.182;21.156;2023-08-31T07:52:01;19.30;99.90
16980;DHT22;42288;52.182;21.156;2023-08-31T07:54:26;19.50;99.90
16980;DHT22;42288;52.182;21.156;2023-08-31T07:56:52;19.50;99.90
16980;DHT22;42288;52.182;21.156;2023-08-31T07:59:18;19.60;99.90
16980;DHT22;42288;52.182;21.156;2023-08-31T08:01:44;19.60;99.90
16980;DHT22;42288;52.182;21.156;2023-08-31T08:04:11;19.70;99.90
16980;DHT22;42288;52.182;21.156;2023-08-31T08:06:37;19.50;99.90
16980;DHT22;42288;52.182;21.156;2023-08-31T08:09:03;19.60;99.90
16980;DHT22;42288;52.182;21.156;2023-08-31T08:11:30;19.70;99.90
16980;DHT22;42288;52.182;21.156;2023-08-31T08:13:55;19.70;99.90
16980;DHT22;42288;52.182;21.156;2023-08-31T08:16:21;19.90;99.90
16980;DHT22;42288;52.182;21.156;2023-08-31T08:18:47;19.90;99.90
16980;DHT22;42288;52.182;21.156;2023-08-31T08:21:12;20.10;99.90
16980;DHT22;42288;52.182;21.156;2023-08-31T08:23:38;20.20;99.90
16980;DHT22;42288;52.182;21.156;2023-08-31T08:26:03;20.30;99.90
16980;DHT22;42288;52.182;21.156;2023-08-31T08:28:29;20.20;99.90
16980;DHT22;42288;52.182;21.156;2023-08-31T08:30:54;20.20;99.90
16980;DHT22;42288;52.182;21.156;2023-08-31T08:33:20;20.30;99.90
16980;DHT22;42288;52.182;21.156;2023-08-31T08:35:46;20.40;99.90
16980;DHT22;42288;52.182;21.156;2023-08-31T08:38:12;20.50;99.90
16980;DHT22;42288;52.182;21.156;2023-08-31T08:40:37;20.50;99.90
16980;DHT22;42288;52.182;21.156;2023-08-31T08:43:06;20.40;99.90
16980;DHT22;42288;52.182;21.156;2023-08-31T08:45:37;20.30;99.90
16980;DHT22;42288;52.182;21.156;2023-08-31T08:48:05;20.50;99.90
16980;DHT22;42288;52.182;21.156;2023-08-31T08:50:32;20.50;99.90
16980;DHT22;42288;52.182;21.156;2023-08-31T08:53:00;20.60;99.90
16980;DHT22;42288;52.182;21.156;2023-08-31T08:55:25;20.60;99.90
16980;DHT22;42288;52.182;21.156;2023-08-31T08:57:51;20.70;99.90
16980;DHT22;42288;52.182;21.156;2023-08-31T09:00:17;20.80;99.90
16980;DHT22;42288;52.182;21.156;2023-08-31T09:02:42;20.90;99.90
16980;DHT22;42288;52.182;21.156;2023-08-31T09:05:08;21.00;99.90
16980;DHT22;42288;52.182;21.156;2023-08-31T09:07:35;21.20;99.90
16980;DHT22;42288;52.182;21.156;2023-08-31T09:10:04;21.10;99.90
16980;DHT22;42288;52.182;21.156;2023-08-31T09:12:30;21.30;99.90
16980;DHT22;42288;52.182;21.156;2023-08-31T09:15:00;21.70;99.90
16980;DHT22;42288;52.182;21.156;2023-08-31T09:17:28;22.00;99.90
16980;DHT22;42288;52.182;21.156;2023-08-31T09:20:03;22.10;99.90
16980;DHT22;42288;52.182;21.156;2023-08-31T09:22:33;22.20;99.90
16980;DHT22;42288;52.182;21.156;2023-08-31T09:24:59;22.40;99.90
16980;DHT22;42288;52.182;21.156;2023-08-31T09:27:25;22.30;99.90
16980;DHT22;42288;52.182;21.156;2023-08-31T09:29:53;22.50;99.90
16980;DHT22;42288;52.182;21.156;2023-08-31T09:32:19;22.40;99.90
16980;DHT22;42288;52.182;21.156;2023-08-31T09:34:45;22.40;99.90
16980;DHT22;42288;52.182;21.156;2023-08-31T09:37:11;22.60;99.90
16980;DHT22;42288;52.182;21.156;2023-08-31T09:39:37;22.70;99.90
16980;DHT22;42288;52.182;21.156;2023-08-31T09:42:04;22.60;99.90
16980;DHT22;42288;52.182;21.156;2023-08-31T09:44:30;22.70;99.90
16980;DHT22;42288;52.182;21.156;2023-08-31T09:46:55;22.60;99.90
16980;DHT22;42288;52.182;21.156;2023-08-31T09:49:22;22.50;99.90
16980;DHT22;42288;52.182;21.156;2023-08-31T09:51:51;22.40;99.90
16980;DHT22;42288;52.182;21.156;2023-08-31T09:54:20;22.40;99.90
16980;DHT22;42288;52.182;21.156;2023-08-31T09:56:48;22.50;99.90
16980;DHT22;42288;52.182;21.156;2023-08-31T09:59:15;22.50;99.90
16980;DHT22;42288;52.182;21.156;2023-08-31T10:01:42;22.50;99.90
16980;DHT22;42288;52.182;21.156;2023-08-31T10:04:08;22.60;99.90
16980;DHT22;42288;52.182;21.156;2023-08-31T10:06:39;22.60;99.90
16980;DHT22;42288;52.182;21.156;2023-08-31T10:09:05;22.60;99.90
16980;DHT22;42288;52.182;21.156;2023-08-31T10:11:31;22.70;99.90
16980;DHT22;42288;52.182;21.156;2023-08-31T10:13:58;22.80;99.90
16980;DHT22;42288;52.182;21.156;2023-08-31T10:16:27;23.00;99.90
16980;DHT22;42288;52.182;21.156;2023-08-31T10:18:55;23.10;99.90
16980;DHT22;42288;52.182;21.156;2023-08-31T10:21:21;23.20;99.90
16980;DHT22;42288;52.182;21.156;2023-08-31T10:23:47;23.70;99.90
16980;DHT22;42288;52.182;21.156;2023-08-31T10:26:24;24.20;99.90
16980;DHT22;42288;52.182;21.156;2023-08-31T10:28:50;24.50;99.90
16980;DHT22;42288;52.182;21.156;2023-08-31T10:31:17;24.90;99.90
16980;DHT22;42288;52.182;21.156;2023-08-31T10:33:47;25.10;99.90
16980;DHT22;42288;52.182;21.156;2023-08-31T10:36:18;25.30;99.90
16980;DHT22;42288;52.182;21.156;2023-08-31T10:39:06;25.00;99.90
16980;DHT22;42288;52.182;21.156;2023-08-31T10:41:35;24.50;99.90
16980;DHT22;42288;52.182;21.156;2023-08-31T10:44:01;24.40;99.90
16980;DHT22;42288;52.182;21.156;2023-08-31T10:46:42;24.40;99.90
16980;DHT22;42288;52.182;21.156;2023-08-31T10:51:37;24.70;99.90
16980;DHT22;42288;52.182;21.156;2023-08-31T10:59:26;24.40;99.90
16980;DHT22;42288;52.182;21.156;2023-08-31T11:01:58;24.20;99.90
16980;DHT22;42288;52.182;21.156;2023-08-31T11:04:26;23.90;99.90
16980;DHT22;42288;52.182;21.156;2023-08-31T11:07:15;23.90;99.90
16980;DHT22;42288;52.182;21.156;2023-08-31T11:09:42;23.80;99.90
16980;DHT22;42288;52.182;21.156;2023-08-31T11:12:08;23.80;99.90
16980;DHT22;42288;52.182;21.156;2023-08-31T11:14:34;23.70;99.90
16980;DHT22;42288;52.182;21.156;2023-08-31T11:17:00;23.60;99.90
16980;DHT22;42288;52.182;21.156;2023-08-31T11:19:27;23.50;99.90
16980;DHT22;42288;52.182;21.156;2023-08-31T11:21:54;23.40;99.90
16980;DHT22;42288;52.182;21.156;2023-08-31T11:24:20;23.60;99.90
16980;DHT22;42288;52.182;21.156;2023-08-31T11:26:49;23.60;99.90
16980;DHT22;42288;52.182;21.156;2023-08-31T11:29:15;23.70;99.90
16980;DHT22;42288;52.182;21.156;2023-08-31T11:31:41;23.80;99.90
16980;DHT22;42288;52.182;21.156;2023-08-31T11:34:08;23.80;99.90
16980;DHT22;42288;52.182;21.156;2023-08-31T11:36:37;23.90;99.90
16980;DHT22;42288;52.182;21.156;2023-08-31T11:39:03;23.80;99.90
16980;DHT22;42288;52.182;21.156;2023-08-31T11:41:38;23.80;99.90
16980;DHT22;42288;52.182;21.156;2023-08-31T11:44:12;23.90;99.90
16980;DHT22;42288;52.182;21.156;2023-08-31T11:46:39;23.90;99.90
16980;DHT22;42288;52.182;21.156;2023-08-31T11:49:07;23.70;99.90
16980;DHT22;42288;52.182;21.156;2023-08-31T11:51:34;23.80;99.90
16980;DHT22;42288;52.182;21.156;2023-08-31T11:54:04;24.00;99.90
16980;DHT22;42288;52.182;21.156;2023-08-31T11:56:43;23.90;99.90
16980;DHT22;42288;52.182;21.156;2023-08-31T11:59:10;23.90;99.90
16980;DHT22;42288;52.182;21.156;2023-08-31T12:01:38;24.10;99.90
16980;DHT22;42288;52.182;21.156;2023-08-31T12:04:15;24.10;99.90
16980;DHT22;42288;52.182;21.156;2023-08-31T12:06:41;24.20;99.90
16980;DHT22;42288;52.182;21.156;2023-08-31T12:09:10;24.20;99.90
16980;DHT22;42288;52.182;21.156;2023-08-31T12:11:36;24.20;99.90
16980;DHT22;42288;52.182;21.156;2023-08-31T12:14:19;24.40;99.90
16980;DHT22;42288;52.182;21.156;2023-08-31T12:16:45;24.30;99.90
16980;DHT22;42288;52.182;21.156;2023-08-31T12:19:11;24.30;99.90
16980;DHT22;42288;52.182;21.156;2023-08-31T12:21:37;24.30;99.90
16980;DHT22;42288;52.182;21.156;2023-08-31T12:24:04;24.20;99.80
16980;DHT22;42288;52.182;21.156;2023-08-31T12:26:29;24.00;99.60
16980;DHT22;42288;52.182;21.156;2023-08-31T12:28:55;24.00;99.60
16980;DHT22;42288;52.182;21.156;2023-08-31T12:31:23;24.00;99.30
16980;DHT22;42288;52.182;21.156;2023-08-31T12:33:48;24.00;99.60
16980;DHT22;42288;52.182;21.156;2023-08-31T12:36:14;24.00;99.40
16980;DHT22;42288;52.182;21.156;2023-08-31T12:38:40;24.10;99.90
16980;DHT22;42288;52.182;21.156;2023-08-31T12:41:06;24.00;99.60
16980;DHT22;42288;52.182;21.156;2023-08-31T12:43:31;24.00;99.70
16980;DHT22;42288;52.182;21.156;2023-08-31T12:45:57;23.90;99.90
16980;DHT22;42288;52.182;21.156;2023-08-31T12:48:23;24.00;99.90
16980;DHT22;42288;52.182;21.156;2023-08-31T12:50:48;24.10;99.90
16980;DHT22;42288;52.182;21.156;2023-08-31T12:53:14;24.00;99.90
16980;DHT22;42288;52.182;21.156;2023-08-31T12:55:40;23.80;98.90
16980;DHT22;42288;52.182;21.156;2023-08-31T12:58:06;23.80;99.90
16980;DHT22;42288;52.182;21.156;2023-08-31T13:00:31;23.80;99.40
16980;DHT22;42288;52.182;21.156;2023-08-31T13:02:57;23.70;99.90
16980;DHT22;42288;52.182;21.156;2023-08-31T13:05:22;23.70;99.90
16980;DHT22;42288;52.182;21.156;2023-08-31T13:07:48;23.60;99.90
16980;DHT22;42288;52.182;21.156;2023-08-31T13:10:14;23.70;99.50
16980;DHT22;42288;52.182;21.156;2023-08-31T13:12:39;23.60;99.50
16980;DHT22;42288;52.182;21.156;2023-08-31T13:15:05;23.60;99.70
16980;DHT22;42288;52.182;21.156;2023-08-31T13:17:35;23.60;99.80
16980;DHT22;42288;52.182;21.156;2023-08-31T13:20:01;23.40;99.70
16980;DHT22;42288;52.182;21.156;2023-08-31T13:22:27;23.40;99.10
16980;DHT22;42288;52.182;21.156;2023-08-31T13:24:53;23.50;99.00
16980;DHT22;42288;52.182;21.156;2023-08-31T13:27:19;23.50;99.30
16980;DHT22;42288;52.182;21.156;2023-08-31T13:29:45;23.50;99.20
16980;DHT22;42288;52.182;21.156;2023-08-31T13:32:10;23.40;98.40
16980;DHT22;42288;52.182;21.156;2023-08-31T13:34:36;23.30;99.70
16980;DHT22;42288;52.182;21.156;2023-08-31T13:37:03;23.40;99.90
16980;DHT22;42288;52.182;21.156;2023-08-31T13:39:29;23.50;99.90
16980;DHT22;42288;52.182;21.156;2023-08-31T13:41:55;23.40;99.90
16980;DHT22;42288;52.182;21.156;2023-08-31T13:44:21;23.30;99.30
16980;DHT22;42288;52.182;21.156;2023-08-31T13:46:49;23.30;99.60
16980;DHT22;42288;52.182;21.156;2023-08-31T13:49:15;23.40;99.90
16980;DHT22;42288;52.182;21.156;2023-08-31T13:51:41;23.40;99.90
16980;DHT22;42288;52.182;21.156;2023-08-31T13:54:07;23.40;99.60
16980;DHT22;42288;52.182;21.156;2023-08-31T13:56:33;23.40;98.80
16980;DHT22;42288;52.182;21.156;2023-08-31T13:58:59;23.30;98.40
16980;DHT22;42288;52.182;21.156;2023-08-31T14:01:25;23.30;99.20
16980;DHT22;42288;52.182;21.156;2023-08-31T14:03:51;23.30;98.70
16980;DHT22;42288;52.182;21.156;2023-08-31T14:06:16;23.40;99.20
16980;DHT22;42288;52.182;21.156;2023-08-31T14:08:42;23.40;98.80
16980;DHT22;42288;52.182;21.156;2023-08-31T14:11:08;23.30;98.90
16980;DHT22;42288;52.182;21.156;2023-08-31T14:13:33;23.30;99.20
16980;DHT22;42288;52.182;21.156;2023-08-31T14:16:00;23.00;98.80
16980;DHT22;42288;52.182;21.156;2023-08-31T14:18:29;22.90;99.50
16980;DHT22;42288;52.182;21.156;2023-08-31T14:20:56;22.70;99.80
16980;DHT22;42288;52.182;21.156;2023-08-31T14:23:26;22.50;99.90
16980;DHT22;42288;52.182;21.156;2023-08-31T14:26:12;22.10;99.90
16980;DHT22;42288;52.182;21.156;2023-08-31T14:28:38;21.50;99.90
16980;DHT22;42288;52.182;21.156;2023-08-31T14:31:06;21.30;99.90
16980;DHT22;42288;52.182;21.156;2023-08-31T14:33:33;21.20;99.90
16980;DHT22;42288;52.182;21.156;2023-08-31T14:35:58;21.00;99.90
16980;DHT22;42288;52.182;21.156;2023-08-31T14:38:24;20.90;99.90
16980;DHT22;42288;52.182;21.156;2023-08-31T14:40:51;20.80;99.90
16980;DHT22;42288;52.182;21.156;2023-08-31T14:43:16;20.70;99.90
16980;DHT22;42288;52.182;21.156;2023-08-31T14:45:42;20.60;99.90
16980;DHT22;42288;52.182;21.156;2023-08-31T14:48:08;20.50;99.90
16980;DHT22;42288;52.182;21.156;2023-08-31T14:50:34;20.40;99.90
16980;DHT22;42288;52.182;21.156;2023-08-31T14:52:59;20.20;99.90
16980;DHT22;42288;52.182;21.156;2023-08-31T14:55:25;20.00;99.90
16980;DHT22;42288;52.182;21.156;2023-08-31T14:57:51;19.90;99.90
16980;DHT22;42288;52.182;21.156;2023-08-31T15:00:16;19.60;99.90
16980;DHT22;42288;52.182;21.156;2023-08-31T15:02:42;19.10;99.90
16980;DHT22;42288;52.182;21.156;2023-08-31T15:05:08;18.60;99.90
16980;DHT22;42288;52.182;21.156;2023-08-31T15:07:34;18.40;99.90
16980;DHT22;42288;52.182;21.156;2023-08-31T15:09:59;18.10;99.90
16980;DHT22;42288;52.182;21.156;2023-08-31T15:12:25;17.90;99.90
16980;DHT22;42288;52.182;21.156;2023-08-31T15:14:51;17.90;99.90
16980;DHT22;42288;52.182;21.156;2023-08-31T15:17:16;17.90;99.90
16980;DHT22;42288;52.182;21.156;2023-08-31T15:19:42;17.90;99.90
16980;DHT22;42288;52.182;21.156;2023-08-31T15:22:07;17.80;99.90
16980;DHT22;42288;52.182;21.156;2023-08-31T15:24:33;17.80;99.90
16980;DHT22;42288;52.182;21.156;2023-08-31T15:26:59;17.80;99.90
16980;DHT22;42288;52.182;21.156;2023-08-31T15:29:25;17.90;99.90
16980;DHT22;42288;52.182;21.156;2023-08-31T15:31:50;17.90;99.90
16980;DHT22;42288;52.182;21.156;2023-08-31T15:34:16;18.00;99.90